Time;durP1;ratioP1;P1;durP2;ratioP2;P2;SDS_P1;SDS_P2;PMS_P1;PMS_P2;Temp;Humidity;BMP_temperature;BMP_pressure;BME280_temperature;BME280_humidity;BME280_pressure;Samples;Min_cycle;Max_cycle;Signal;HPM_P1;HPM_P2
2022/12/30 00:02:08;;;;;;;76.05;42.20;;;;;;;4.38;77.23;101791.75;5112482;27;20055;-89
2022/12/30 00:04:34;;;;;;;68.38;38.70;;;;;;;4.38;77.07;101799.75;5133910;27;20030;-87
2022/12/30 00:07:00;;;;;;;59.60;36.13;;;;;;;4.20;77.59;101785.72;5147663;27;20031;-87
2022/12/30 00:09:26;;;;;;;59.90;33.13;;;;;;;4.17;76.90;101767.28;5130478;27;20023;-88
2022/12/30 00:11:51;;;;;;;60.33;35.58;;;;;;;4.37;76.80;101800.66;5108830;28;20388;-86
2022/12/30 00:33:56;;;;;;;66.47;36.13;;;;;;;4.19;77.48;101804.44;5104141;27;20027;-85
2022/12/30 00:36:21;;;;;;;69.80;37.42;;;;;;;4.12;77.42;101797.78;5133521;27;20023;-88
2022/12/30 00:38:47;;;;;;;63.85;36.70;;;;;;;4.12;77.53;101795.09;5125422;27;20030;-88
2022/12/30 00:43:57;;;;;;;70.40;36.45;;;;;;;4.06;77.65;101784.84;5130534;27;20071;-87
2022/12/30 00:46:23;;;;;;;68.60;35.25;;;;;;;3.99;77.32;101774.56;5122898;27;20064;-89
2022/12/30 00:57:01;;;;;;;54.15;29.52;;;;;;;3.99;79.21;101817.13;5135460;27;20096;-89
2022/12/30 00:59:27;;;;;;;48.40;27.70;;;;;;;3.96;79.07;101805.81;5117951;28;20023;-88
2022/12/30 01:01:52;;;;;;;52.07;28.13;;;;;;;3.67;79.37;101764.94;5127773;28;20307;-87
2022/12/30 01:04:18;;;;;;;49.53;27.37;;;;;;;3.69;79.60;101779.03;5140234;27;20265;-86
2022/12/30 01:06:43;;;;;;;44.77;25.93;;;;;;;3.91;80.05;101808.75;5123704;27;20055;-88
2022/12/30 01:09:09;;;;;;;47.45;26.08;;;;;;;3.88;80.31;101814.22;5126753;28;20270;-88
2022/12/30 01:11:34;;;;;;;45.13;26.00;;;;;;;3.67;80.65;101792.41;5121514;28;20027;-88
2022/12/30 01:14:00;;;;;;;50.73;25.43;;;;;;;3.83;80.01;101803.00;5107109;28;20036;-88
2022/12/30 01:16:26;;;;;;;49.10;26.85;;;;;;;3.66;80.37;101771.22;5123181;28;20106;-89
2022/12/30 01:18:51;;;;;;;43.07;23.90;;;;;;;3.67;80.60;101772.94;5108911;28;20030;-88
2022/12/30 01:21:17;;;;;;;41.00;23.88;;;;;;;3.76;81.23;101799.00;5118519;28;20265;-88
2022/12/30 01:23:43;;;;;;;47.00;24.63;;;;;;;3.58;81.54;101775.19;5133887;27;20027;-89
2022/12/30 01:26:09;;;;;;;39.45;22.77;;;;;;;3.50;82.40;101782.72;5135693;28;20068;-89
2022/12/30 01:28:35;;;;;;;42.35;23.25;;;;;;;3.56;82.29;101773.56;5140318;28;20023;-87
2022/12/30 01:31:04;;;;;;;41.42;23.05;;;;;;;3.70;82.33;101786.03;5135341;28;20016;-87
2022/12/30 01:33:29;;;;;;;44.50;24.10;;;;;;;3.58;81.94;101764.56;5104029;28;20055;-88
2022/12/30 01:35:55;;;;;;;43.58;23.65;;;;;;;3.65;82.35;101775.66;5118062;28;20054;-88
2022/12/30 01:38:20;;;;;;;45.53;25.00;;;;;;;3.81;81.80;101786.28;5139274;28;20019;-85
2022/12/30 01:40:46;;;;;;;42.40;24.73;;;;;;;3.88;81.64;101782.31;5136379;28;20042;-89
2022/12/30 01:43:12;;;;;;;43.92;24.77;;;;;;;3.72;81.32;101754.91;5128182;28;20061;-88
2022/12/30 01:45:38;;;;;;;;;;;;;;;3.91;81.36;101782.16;5114831;28;20049;-88
2022/12/30 01:48:20;;;;;;;43.63;23.33;;;;;;;3.90;81.02;101784.88;5117341;28;19907;-87
2022/12/30 01:51:13;;;;;;;44.53;23.65;;;;;;;3.88;80.84;101779.66;5152414;28;20042;-86
2022/12/30 01:53:43;;;;;;;44.60;22.88;;;;;;;3.89;80.95;101783.19;5151611;28;20035;-89
2022/12/30 01:56:21;;;;;;;40.42;22.10;;;;;;;3.94;81.12;101781.97;5108517;28;20039;-88
2022/12/30 01:58:59;;;;;;;42.80;23.35;;;;;;;3.75;81.90;101765.38;5149967;28;20027;-88
2022/12/30 02:01:24;;;;;;;41.47;22.75;;;;;;;3.47;83.07;101735.06;5127872;27;20042;-89
2022/12/30 02:04:09;;;;;;;40.45;23.60;;;;;;;3.65;82.90;101774.81;5124399;28;20026;-88
2022/12/30 02:06:49;;;;;;;44.73;23.60;;;;;;;3.67;82.67;101752.50;5129940;28;20039;-88
2022/12/30 02:09:15;;;;;;;40.35;23.60;;;;;;;3.50;82.43;101737.53;5121297;28;20386;-88
2022/12/30 02:11:40;;;;;;;43.73;23.97;;;;;;;3.56;82.49;101755.81;5132227;27;20030;-88
2022/12/30 02:14:06;;;;;;;47.17;24.77;;;;;;;3.46;82.35;101732.47;5133271;27;20265;-87
2022/12/30 02:16:38;;;;;;;47.43;25.53;;;;;;;3.71;82.13;101774.47;5129149;27;20293;-89
2022/12/30 02:19:41;;;;;;;44.90;24.92;;;;;;;3.56;82.00;101769.09;5138127;27;20107;-89
2022/12/30 02:22:09;;;;;;;43.45;23.98;;;;;;;3.50;82.18;101772.09;5128388;28;20413;-88
2022/12/30 02:24:48;;;;;;;49.88;26.13;;;;;;;3.44;82.79;101761.84;5124776;27;20050;-87
2022/12/30 02:27:35;;;;;;;46.53;25.30;;;;;;;3.52;82.31;101758.72;5134770;27;20031;-90
2022/12/30 02:30:18;;;;;;;49.13;26.73;;;;;;;3.17;82.93;101735.88;5138185;27;20016;-88
2022/12/30 02:32:56;;;;;;;51.38;25.50;;;;;;;3.45;82.95;101762.69;5119032;28;20035;-87
2022/12/30 02:35:53;;;;;;;46.13;25.00;;;;;;;3.30;82.81;101743.13;5130859;27;20027;-88
2022/12/30 02:38:53;;;;;;;42.53;25.02;;;;;;;3.42;82.65;101758.41;5138516;27;20028;-88
2022/12/30 02:47:04;;;;;;;41.45;23.48;;;;;;;3.23;81.89;101713.41;5120582;28;20034;-88
2022/12/30 02:49:30;;;;;;;47.10;25.30;;;;;;;3.19;81.94;101709.22;5135486;27;20580;-89
2022/12/30 02:52:14;;;;;;;43.45;24.63;;;;;;;3.45;81.88;101742.25;5104543;28;20099;-89
2022/12/30 02:54:40;;;;;;;42.97;24.05;;;;;;;3.39;82.11;101721.34;5113911;28;20032;-88
2022/12/30 02:57:28;;;;;;;39.53;23.48;;;;;;;3.41;81.87;101724.78;5115895;27;20015;-87
2022/12/30 03:06:14;;;;;;;46.47;24.65;;;;;;;3.53;80.78;101755.13;5142535;27;20069;-89
2022/12/30 03:08:56;;;;;;;50.67;25.95;;;;;;;3.59;81.08;101768.91;5144815;27;20034;-89
2022/12/30 03:11:22;;;;;;;48.55;25.70;;;;;;;3.58;81.06;101756.56;5141387;27;20027;-88
2022/12/30 03:14:00;;;;;;;48.67;26.48;;;;;;;3.52;80.85;101751.59;5093798;28;20104;-87
2022/12/30 03:16:36;;;;;;;57.50;30.75;;;;;;;3.59;81.35;101766.25;5141342;27;20060;-88
2022/12/30 03:19:14;;;;;;;53.08;29.17;;;;;;;3.48;81.12;101742.09;5132779;27;20042;-89
2022/12/30 03:21:40;;;;;;;54.15;29.00;;;;;;;3.43;81.16;101738.84;5108041;27;20035;-87
2022/12/30 03:27:03;;;;;;;67.45;36.63;;;;;;;3.45;81.57;101763.53;5115893;28;20042;-86
2022/12/30 03:29:35;;;;;;;79.95;38.63;;;;;;;3.36;81.77;101753.44;5116603;28;20023;-87
2022/12/30 03:32:01;;;;;;;91.47;43.58;;;;;;;3.35;81.85;101765.03;5111412;27;20031;-88
2022/12/30 03:34:26;;;;;;;97.88;47.88;;;;;;;3.19;82.56;101762.38;5129678;27;20027;-89
2022/12/30 03:36:56;;;;;;;107.78;48.85;;;;;;;3.11;82.29;101754.84;5118058;27;20035;-88
2022/12/30 03:39:29;;;;;;;111.20;53.65;;;;;;;3.26;82.76;101781.47;5138637;27;20027;-87
2022/12/30 03:41:55;;;;;;;129.75;57.13;;;;;;;2.98;82.55;101732.53;5126024;28;20027;-89
2022/12/30 03:44:20;;;;;;;125.20;56.45;;;;;;;3.00;82.98;101743.06;5135883;28;20061;-87
2022/12/30 03:46:48;;;;;;;131.48;61.03;;;;;;;3.24;82.62;101781.56;5127707;28;20082;-87
2022/12/30 03:49:14;;;;;;;142.85;59.72;;;;;;;3.08;82.34;101747.00;5094127;27;20038;-85
2022/12/30 03:51:39;;;;;;;122.03;58.63;;;;;;;3.07;81.85;101741.81;5115933;27;20047;-88
2022/12/30 03:54:05;;;;;;;120.30;56.63;;;;;;;3.12;82.00;101747.72;5132424;27;20053;-87
2022/12/30 03:56:30;;;;;;;103.20;52.83;;;;;;;3.14;81.89;101746.69;5104571;28;20023;-88
2022/12/30 03:58:56;;;;;;;107.77;52.47;;;;;;;3.15;81.98;101753.69;5127455;28;20265;-88
2022/12/30 04:01:21;;;;;;;114.07;52.40;;;;;;;3.26;81.72;101754.91;5127258;27;20083;-86
2022/12/30 04:03:47;;;;;;;109.93;52.77;;;;;;;3.06;82.04;101748.88;5128819;28;20274;-87
2022/12/30 04:06:12;;;;;;;115.60;51.40;;;;;;;3.17;82.65;101786.34;5105080;27;20459;-87
2022/12/30 04:08:38;;;;;;;113.27;51.37;;;;;;;3.19;83.11;101785.44;5131951;27;20280;-87
2022/12/30 04:11:04;;;;;;;114.03;52.90;;;;;;;2.93;83.16;101745.22;5121041;27;20134;-87
2022/12/30 04:13:29;;;;;;;108.80;51.58;;;;;;;3.22;82.79;101782.59;5153449;27;20019;-86
2022/12/30 04:15:56;;;;;;;111.55;51.53;;;;;;;3.21;82.62;101786.19;5117228;27;20057;-87
2022/12/30 04:18:21;;;;;;;108.80;50.95;;;;;;;3.09;82.46;101762.03;5096310;28;20482;-88
2022/12/30 04:20:47;;;;;;;107.32;50.50;;;;;;;2.92;82.94;101762.09;5111392;28;20019;-89
2022/12/30 04:23:13;;;;;;;107.72;52.50;;;;;;;2.95;83.53;101769.91;5129453;28;20175;-88
2022/12/30 04:25:38;;;;;;;112.27;51.10;;;;;;;3.10;82.82;101784.97;5115532;27;20043;-88
2022/12/30 04:28:04;;;;;;;107.80;51.10;;;;;;;2.99;82.72;101775.91;5135064;27;20795;-88
2022/12/30 04:30:30;;;;;;;105.78;50.45;;;;;;;2.82;83.05;101759.09;5128563;28;20285;-85
2022/12/30 04:32:55;;;;;;;112.25;49.60;;;;;;;3.00;82.86;101782.91;5128629;27;20107;-88
2022/12/30 04:35:20;;;;;;;118.90;50.83;;;;;;;2.93;82.66;101762.00;5149921;27;20027;-89
2022/12/30 04:37:49;;;;;;;118.27;52.73;;;;;;;3.09;82.64;101787.72;5149980;27;20031;-89
2022/12/30 04:40:15;;;;;;;120.95;55.80;;;;;;;2.89;82.70;101764.94;5132570;27;20719;-87
2022/12/30 04:42:41;;;;;;;122.80;56.50;;;;;;;2.87;82.70;101766.81;5113455;28;20169;-89
2022/12/30 04:45:07;;;;;;;128.60;58.23;;;;;;;2.84;82.97;101766.97;5125124;27;20035;-88
2022/12/30 04:47:33;;;;;;;122.45;55.55;;;;;;;2.98;83.13;101809.59;5111910;28;20273;-89
2022/12/30 04:49:58;;;;;;;129.20;55.38;;;;;;;2.82;83.04;101769.72;5115288;27;20035;-86
2022/12/30 04:52:24;;;;;;;113.68;54.70;;;;;;;2.74;83.53;101772.78;5130133;28;20032;-87
2022/12/30 04:54:50;;;;;;;120.57;54.42;;;;;;;2.79;83.96;101790.28;5129060;28;20038;-88
2022/12/30 04:57:15;;;;;;;118.45;55.03;;;;;;;2.65;83.79;101769.78;5122731;28;20076;-88
2022/12/30 04:59:41;;;;;;;119.07;55.80;;;;;;;2.88;83.87;101805.69;5115405;28;20118;-88
2022/12/30 05:02:06;;;;;;;133.32;56.47;;;;;;;2.42;84.26;101747.97;5132238;27;20023;-87
2022/12/30 05:04:32;;;;;;;120.00;54.80;;;;;;;2.56;84.18;101757.84;5139238;27;20090;-86
2022/12/30 05:06:57;;;;;;;121.53;55.37;;;;;;;2.59;84.28;101762.97;5114776;28;20280;-86
2022/12/30 05:09:23;;;;;;;113.93;52.95;;;;;;;2.58;83.79;101750.66;5107087;28;20031;-88
2022/12/30 05:11:48;;;;;;;112.23;55.00;;;;;;;2.85;83.75;101797.91;5128375;27;20035;-87
2022/12/30 05:14:14;;;;;;;112.97;53.67;;;;;;;2.57;83.57;101764.84;5128631;27;20390;-87
2022/12/30 05:16:40;;;;;;;111.80;53.10;;;;;;;2.67;83.93;101787.34;5114169;28;20309;-88
2022/12/30 05:19:05;;;;;;;121.80;54.90;;;;;;;2.57;83.86;101767.50;5112198;28;20277;-86
2022/12/30 05:21:31;;;;;;;111.28;53.63;;;;;;;2.54;83.47;101744.66;5112230;28;20452;-86
2022/12/30 05:26:40;;;;;;;111.65;51.42;;;;;;;2.72;83.72;101793.25;5128988;28;20276;-88
2022/12/30 05:29:06;;;;;;;113.00;52.83;;;;;;;2.66;84.39;101796.22;5115940;28;20024;-88
2022/12/30 05:31:33;;;;;;;111.72;51.80;;;;;;;2.62;84.41;101797.34;5130788;27;20035;-87
2022/12/30 05:33:59;;;;;;;114.80;53.78;;;;;;;2.47;84.74;101791.03;5130168;28;20367;-88
2022/12/30 05:36:25;;;;;;;118.78;52.85;;;;;;;2.64;84.47;101795.44;5127632;28;20031;-88
2022/12/30 05:38:50;;;;;;;120.70;54.23;;;;;;;2.51;84.06;101786.44;5113157;28;20020;-87
2022/12/30 05:41:19;;;;;;;114.03;52.03;;;;;;;2.33;84.21;101778.50;5106649;28;20068;-88
2022/12/30 05:43:44;;;;;;;106.95;49.92;;;;;;;2.19;84.34;101758.94;5123889;28;20269;-86
2022/12/30 05:46:16;;;;;;;105.37;49.20;;;;;;;2.25;84.37;101779.84;5097748;28;20038;-87
2022/12/30 05:48:42;;;;;;;100.32;49.58;;;;;;;2.15;84.88;101773.28;5111454;28;20269;-88
2022/12/30 05:51:07;;;;;;;101.25;46.95;;;;;;;2.08;85.26;101778.06;5100725;28;20096;-88
2022/12/30 05:53:33;;;;;;;115.10;47.50;;;;;;;2.15;84.98;101782.09;5137357;28;20119;-87
2022/12/30 05:55:59;;;;;;;106.07;49.47;;;;;;;2.06;84.73;101775.50;5119539;28;20440;-87
2022/12/30 05:58:25;;;;;;;100.47;47.45;;;;;;;2.13;84.61;101778.69;5129986;28;20341;-88
2022/12/30 06:00:51;;;;;;;94.72;47.30;;;;;;;2.20;84.53;101782.75;5129822;28;20036;-87
2022/12/30 06:03:16;;;;;;;97.28;45.63;;;;;;;2.40;84.22;101794.13;5107285;28;20027;-90
2022/12/30 06:05:42;;;;;;;99.15;47.90;;;;;;;2.45;84.32;101805.34;5115056;28;20055;-89
2022/12/30 06:08:08;;;;;;;95.35;45.72;;;;;;;2.16;83.95;101749.34;5111793;28;20028;-87
2022/12/30 06:10:40;;;;;;;88.50;43.92;;;;;;;2.56;83.88;101808.28;5108031;28;20056;-87
2022/12/30 06:13:05;;;;;;;91.55;45.20;;;;;;;2.54;83.75;101791.59;5134923;28;20083;-87
2022/12/30 06:15:31;;;;;;;88.07;42.90;;;;;;;2.59;83.62;101784.22;5111583;28;20034;-89
2022/12/30 06:17:56;;;;;;;85.32;41.58;;;;;;;2.58;83.54;101793.16;5118134;28;20368;-88
2022/12/30 06:20:22;;;;;;;87.18;39.92;;;;;;;2.56;83.73;101779.09;5109788;28;20068;-88
2022/12/30 06:22:49;;;;;;;83.27;38.63;;;;;;;2.69;83.73;101774.84;5112853;28;20032;-89
2022/12/30 06:25:14;;;;;;;69.95;37.33;;;;;;;2.93;83.62;101795.69;5114248;28;20040;-87
2022/12/30 06:27:40;;;;;;;74.38;37.67;;;;;;;3.18;83.40;101811.13;5131253;28;20055;-88
2022/12/30 06:30:06;;;;;;;75.00;37.97;;;;;;;3.40;82.46;101810.81;5132241;28;20023;-90
2022/12/30 06:32:32;;;;;;;72.55;38.67;;;;;;;3.26;81.63;101797.44;5111782;28;20050;-88
2022/12/30 06:34:57;;;;;;;82.40;39.78;;;;;;;3.22;81.79;101780.78;5125556;28;20027;-87
2022/12/30 06:37:23;;;;;;;82.67;41.43;;;;;;;3.36;81.05;101793.31;5134195;28;20027;-86
2022/12/30 06:39:48;;;;;;;80.70;42.85;;;;;;;3.55;80.67;101817.03;5116361;28;20651;-88
2022/12/30 06:42:14;;;;;;;92.43;44.17;;;;;;;3.39;80.43;101779.81;5093789;28;20027;-87
2022/12/30 06:44:40;;;;;;;91.45;44.70;;;;;;;3.71;80.24;101817.03;5100432;28;20032;-87
2022/12/30 06:47:05;;;;;;;101.05;46.22;;;;;;;3.67;79.84;101800.38;5145756;28;20027;-88
2022/12/30 06:49:31;;;;;;;98.22;47.63;;;;;;;3.83;79.67;101816.31;5121055;27;20023;-88
2022/12/30 06:51:56;;;;;;;98.97;49.20;;;;;;;3.56;79.43;101785.06;5117616;27;20038;-89
2022/12/30 06:54:22;;;;;;;102.67;51.23;;;;;;;3.86;79.22;101815.28;5135715;27;20050;-89
2022/12/30 06:56:47;;;;;;;101.88;50.28;;;;;;;3.91;78.83;101830.03;5104412;27;20288;-88
2022/12/30 06:59:13;;;;;;;98.75;49.17;;;;;;;4.01;78.29;101807.25;5138973;27;20479;-88
2022/12/30 07:01:38;;;;;;;112.18;52.60;;;;;;;4.19;78.13;101831.06;5130229;28;20523;-88
2022/12/30 07:04:04;;;;;;;114.95;54.20;;;;;;;3.94;78.18;101783.78;5124267;27;20112;-87
2022/12/30 07:06:30;;;;;;;118.80;54.87;;;;;;;4.28;77.73;101805.69;5121290;28;20064;-88
2022/12/30 07:08:55;;;;;;;111.68;51.38;;;;;;;4.31;77.55;101794.84;5131075;28;20277;-87
2022/12/30 07:11:21;;;;;;;105.38;51.20;;;;;;;4.48;76.96;101785.88;5099769;27;20131;-89
2022/12/30 07:13:46;;;;;;;105.40;48.60;;;;;;;4.73;76.07;101795.84;5152084;27;20037;-89
2022/12/30 07:16:12;;;;;;;101.57;49.38;;;;;;;5.05;75.10;101785.81;5114491;27;20038;-89
2022/12/30 07:18:37;;;;;;;96.55;49.88;;;;;;;5.42;73.96;101818.13;5141459;27;20027;-88
2022/12/30 07:21:03;;;;;;;90.05;46.47;;;;;;;5.98;72.67;101818.06;5109624;28;20040;-88
2022/12/30 07:23:29;;;;;;;82.20;42.15;;;;;;;7.12;68.54;101813.72;5104785;27;20118;-89
2022/12/30 07:25:54;;;;;;;78.70;40.97;;;;;;;8.20;63.98;101777.97;5145644;27;20524;-87
2022/12/30 07:28:20;;;;;;;71.60;39.13;;;;;;;9.22;60.91;101823.63;5133304;27;20039;-89
2022/12/30 07:30:46;;;;;;;80.28;39.88;;;;;;;9.34;59.38;101800.31;5134244;27;20070;-88
2022/12/30 07:33:11;;;;;;;77.18;40.25;;;;;;;10.17;56.42;101798.81;5133842;27;20067;-89
2022/12/30 07:35:37;;;;;;;72.60;41.08;;;;;;;11.17;53.57;101786.47;5120851;27;20087;-88
2022/12/30 07:38:02;;;;;;;71.82;41.00;;;;;;;11.66;52.14;101777.59;5132086;28;20027;-89
2022/12/30 07:40:28;;;;;;;71.00;41.60;;;;;;;12.32;49.94;101823.59;5133906;27;20023;-89
2022/12/30 07:42:54;;;;;;;;;;;;;;;13.40;48.08;101815.97;5135245;27;20035;-89
2022/12/30 07:45:20;;;;;;;77.00;40.78;;;;;;;13.46;46.72;101800.03;5133520;27;19937;-88
2022/12/30 07:47:45;;;;;;;65.97;41.22;;;;;;;14.70;44.47;101824.44;5115318;27;20051;-89
2022/12/30 07:50:11;;;;;;;;;;;;;;;15.69;41.69;101814.84;5152644;27;20060;-90
2022/12/30 07:52:37;;;;;;;82.28;44.75;;;;;;;17.13;39.54;101819.66;5146141;27;19906;-89
2022/12/30 07:55:02;;;;;;;;;;;;;;;18.49;36.46;101815.53;5122706;27;20035;-89
2022/12/30 07:57:28;;;;;;;70.55;43.03;;;;;;;19.64;34.29;101784.16;5131286;28;19907;-90
2022/12/30 07:59:54;;;;;;;76.03;45.53;;;;;;;20.80;31.84;101798.44;5120234;27;20060;-89
2022/12/30 08:02:23;;;;;;;75.00;45.80;;;;;;;21.36;29.89;101775.56;5153094;27;20357;-88
2022/12/30 08:04:48;;;;;;;73.95;48.08;;;;;;;21.94;29.40;101814.25;5118565;28;20035;-89
2022/12/30 08:07:17;;;;;;;75.80;47.97;;;;;;;22.67;28.04;101797.00;5130249;28;20031;-89
2022/12/30 08:09:44;;;;;;;80.57;49.85;;;;;;;22.89;27.10;101803.88;5133475;27;20027;-89
2022/12/30 08:12:10;;;;;;;75.75;49.97;;;;;;;23.92;26.08;101792.03;5126930;27;20015;-88
2022/12/30 08:14:36;;;;;;;80.07;51.92;;;;;;;24.48;25.50;101820.56;5117593;27;20052;-88
2022/12/30 08:17:01;;;;;;;81.10;50.90;;;;;;;24.91;24.62;101805.97;5123863;28;20028;-87
2022/12/30 08:19:30;;;;;;;78.07;50.38;;;;;;;25.62;23.93;101820.13;5113160;28;20031;-90
2022/12/30 08:21:55;;;;;;;80.18;49.33;;;;;;;25.78;23.56;101826.88;5122375;27;20027;-90
2022/12/30 08:24:21;;;;;;;76.90;49.03;;;;;;;26.10;22.73;101791.66;5130656;27;20068;-90
2022/12/30 08:26:46;;;;;;;71.05;49.65;;;;;;;26.99;22.09;101810.84;5136162;27;20038;-89
2022/12/30 08:29:12;;;;;;;73.45;47.80;;;;;;;27.30;21.75;101806.84;5114160;28;20023;-90
2022/12/30 08:31:49;;;;;;;65.38;46.40;;;;;;;27.99;21.40;101797.66;5109753;28;20107;-88
2022/12/30 08:34:16;;;;;;;75.63;46.95;;;;;;;28.51;20.48;101800.19;5136167;27;20011;-89
2022/12/30 08:36:44;;;;;;;66.65;45.35;;;;;;;28.73;20.03;101799.38;5153158;27;20121;-87
2022/12/30 08:39:10;;;;;;;71.65;45.88;;;;;;;29.49;19.15;101818.91;5129999;28;20163;-88
2022/12/30 08:41:39;;;;;;;75.60;50.03;;;;;;;30.03;18.96;101804.25;5131519;28;20039;-89
2022/12/30 08:44:05;;;;;;;75.53;49.50;;;;;;;30.01;18.89;101790.63;5127483;28;20487;-90
2022/12/30 08:46:33;;;;;;;73.00;48.17;;;;;;;30.40;18.50;101815.38;5110741;28;20129;-89
2022/12/30 08:48:58;;;;;;;71.38;48.45;;;;;;;30.70;17.65;101794.50;5124196;27;20031;-89
2022/12/30 08:51:24;;;;;;;62.03;43.63;;;;;;;30.47;18.01;101785.47;5130227;27;20019;-90
2022/12/30 08:53:50;;;;;;;66.38;43.40;;;;;;;31.34;17.15;101797.00;5153220;27;20027;-89
2022/12/30 08:56:18;;;;;;;53.63;37.40;;;;;;;31.00;17.20;101802.16;5144287;27;20371;-88
2022/12/30 08:58:43;;;;;;;44.75;35.10;;;;;;;29.97;18.21;101792.28;5127775;27;20067;-89
2022/12/30 09:01:19;;;;;;;45.33;33.38;;;;;;;28.88;19.33;101782.16;5122688;28;20027;-90
2022/12/30 09:03:44;;;;;;;44.20;31.83;;;;;;;28.73;19.62;101791.06;5149271;27;20119;-89
2022/12/30 09:06:11;;;;;;;45.33;30.92;;;;;;;29.55;18.87;101800.41;5116959;27;20114;-89
2022/12/30 09:08:36;;;;;;;43.70;30.73;;;;;;;30.36;18.28;101777.34;5121718;27;20023;-89
2022/12/30 09:11:14;;;;;;;46.75;30.58;;;;;;;28.93;19.74;101768.38;5135610;27;20495;-89
2022/12/30 09:13:40;;;;;;;43.05;29.75;;;;;;;29.63;19.24;101788.88;5115736;27;20043;-89
2022/12/30 09:16:08;;;;;;;48.97;32.25;;;;;;;30.33;18.23;101742.66;5131336;27;20050;-89
2022/12/30 09:18:34;;;;;;;44.67;31.73;;;;;;;31.56;17.21;101765.41;5113454;28;20019;-90
2022/12/30 09:20:59;;;;;;;47.50;30.27;;;;;;;32.28;16.67;101738.44;5147457;27;20031;-90
2022/12/30 09:23:25;;;;;;;38.92;28.13;;;;;;;33.30;16.00;101773.47;5127071;27;20035;-89
2022/12/30 09:25:51;;;;;;;42.65;27.13;;;;;;;31.28;17.30;101762.00;5107101;28;20091;-88
2022/12/30 09:28:16;;;;;;;39.22;26.88;;;;;;;28.90;19.62;101763.38;5107650;28;20119;-90
2022/12/30 09:30:42;;;;;;;42.60;27.50;;;;;;;29.20;19.15;101744.38;5114309;27;20031;-89
2022/12/30 09:33:07;;;;;;;34.35;25.20;;;;;;;29.85;18.55;101759.19;5149533;27;20011;-89
2022/12/30 09:35:33;;;;;;;38.13;24.67;;;;;;;28.95;19.21;101728.28;5133881;28;20053;-89
2022/12/30 09:37:58;;;;;;;33.92;25.48;;;;;;;29.21;18.99;101729.44;5116980;28;20067;-90
2022/12/30 09:40:40;;;;;;;35.03;25.15;;;;;;;30.17;18.29;101738.06;5131203;28;20023;-89
2022/12/30 09:43:17;;;;;;;34.17;24.42;;;;;;;30.52;18.29;101745.00;5152892;28;20015;-89
2022/12/30 09:45:55;;;;;;;34.95;24.55;;;;;;;31.29;17.42;101738.66;5123492;28;20030;-90
2022/12/30 09:48:26;;;;;;;36.53;25.90;;;;;;;31.15;17.03;101704.19;5118253;28;20055;-92
2022/12/30 09:50:54;;;;;;;36.92;25.75;;;;;;;30.78;17.23;101720.97;5132754;28;20051;-89
2022/12/30 09:53:22;;;;;;;36.47;27.20;;;;;;;29.70;18.39;101713.88;5113350;28;20095;-89
2022/12/30 09:56:00;;;;;;;33.65;25.52;;;;;;;29.29;18.98;101738.38;5136855;28;20044;-88
2022/12/30 09:58:33;;;;;;;35.00;25.10;;;;;;;29.17;18.95;101697.84;5116865;28;20030;-90
2022/12/30 10:01:28;;;;;;;36.45;24.67;;;;;;;29.26;19.08;101723.13;5109922;28;20019;-88
2022/12/30 10:03:55;;;;;;;30.15;22.50;;;;;;;28.48;19.88;101712.19;5143173;28;20063;-90
2022/12/30 10:06:20;;;;;;;37.67;22.70;;;;;;;28.21;20.24;101728.63;5127165;28;20031;-90
2022/12/30 10:09:05;;;;;;;31.40;21.13;;;;;;;28.30;19.98;101713.28;5138233;27;20035;-90
2022/12/30 10:11:40;;;;;;;38.45;21.17;;;;;;;29.54;19.04;101716.47;5136516;28;20011;-89
2022/12/30 10:14:43;;;;;;;28.35;19.95;;;;;;;30.35;18.07;101712.72;5129686;28;20030;-89
2022/12/30 10:17:18;;;;;;;28.05;18.58;;;;;;;30.95;17.46;101709.66;5134107;28;20031;-91
2022/12/30 10:20:06;;;;;;;29.20;18.60;;;;;;;31.76;16.66;101676.47;5127756;28;20072;-90
2022/12/30 10:23:20;;;;;;;21.70;17.02;;;;;;;31.28;16.77;101687.00;5117752;28;20184;-90
2022/12/30 10:25:52;;;;;;;18.40;16.35;;;;;;;30.46;17.61;101724.69;5127389;27;20055;-89
2022/12/30 10:28:24;;;;;;;21.98;16.75;;;;;;;29.19;18.65;101695.63;5122032;27;20458;-89
2022/12/30 10:30:50;;;;;;;21.70;16.20;;;;;;;28.85;19.02;101716.28;5126336;28;20035;-90
2022/12/30 10:33:21;;;;;;;25.23;16.33;;;;;;;27.97;19.59;101690.13;5145466;27;20095;-90
2022/12/30 10:35:53;;;;;;;26.20;17.02;;;;;;;29.30;18.75;101690.22;5129851;28;20027;-90
2022/12/30 10:38:26;;;;;;;22.88;16.58;;;;;;;29.60;18.63;101707.13;5131374;28;20024;-89
2022/12/30 10:41:21;;;;;;;30.48;16.60;;;;;;;29.98;18.36;101696.91;5138588;27;20031;-89
2022/12/30 10:44:00;;;;;;;25.90;15.27;;;;;;;31.14;16.93;101683.09;5128653;27;20032;-89
2022/12/30 10:47:08;;;;;;;19.85;14.40;;;;;;;30.55;17.51;101688.94;5152252;27;20035;-87
2022/12/30 10:49:53;;;;;;;22.40;14.90;;;;;;;30.06;18.02;101685.34;5088281;28;20044;-89
2022/12/30 10:52:18;;;;;;;18.40;14.73;;;;;;;30.64;17.43;101656.81;5143081;27;20136;-89
2022/12/30 10:54:45;;;;;;;26.08;17.35;;;;;;;31.32;16.74;101673.38;5134518;28;20027;-88
2022/12/30 10:57:19;;;;;;;29.20;18.17;;;;;;;32.32;16.14;101661.66;5133186;27;20030;-90
2022/12/30 10:59:45;;;;;;;25.58;18.58;;;;;;;32.72;15.50;101664.56;5132505;28;20027;-88
2022/12/30 11:02:24;;;;;;;28.02;19.70;;;;;;;32.59;15.73;101654.88;5148105;27;20072;-90
2022/12/30 11:04:50;;;;;;;23.70;16.13;;;;;;;32.65;15.92;101676.03;5113277;28;20050;-88
2022/12/30 11:07:16;;;;;;;23.17;17.17;;;;;;;32.56;15.57;101661.03;5141718;27;20064;-88
2022/12/30 11:09:42;;;;;;;27.88;16.42;;;;;;;32.85;15.99;101674.25;5136095;27;20024;-91
2022/12/30 11:15:14;;;;;;;21.77;15.10;;;;;;;32.74;16.06;101667.91;5149394;27;20134;-89
2022/12/30 11:17:52;;;;;;;20.17;13.85;;;;;;;32.77;15.49;101672.91;5120147;27;20026;-89
2022/12/30 11:20:39;;;;;;;23.60;15.25;;;;;;;32.94;15.25;101662.25;5148880;27;20019;-89
2022/12/30 11:23:06;;;;;;;25.08;15.52;;;;;;;32.57;16.21;101663.53;5112421;28;20015;-90
2022/12/30 11:25:59;;;;;;;33.50;15.98;;;;;;;33.03;15.43;101667.19;5114426;27;20056;-89
2022/12/30 11:28:45;;;;;;;24.02;16.77;;;;;;;33.13;15.09;101642.06;5129669;27;20039;-90
2022/12/30 11:31:11;;;;;;;21.48;15.50;;;;;;;32.65;16.14;101650.97;5127886;28;20040;-89
2022/12/30 11:33:46;;;;;;;24.25;15.13;;;;;;;32.34;15.99;101645.50;5112815;28;20096;-89
2022/12/30 11:36:19;;;;;;;;;;;;;;;32.71;15.97;101668.47;5129055;28;20038;-89
2022/12/30 11:38:50;;;;;;;24.50;14.65;;;;;;;32.66;15.80;101660.13;5113099;28;19920;-88
2022/12/30 11:41:16;;;;;;;25.17;13.75;;;;;;;32.84;15.53;101658.66;5119585;28;20134;-89
2022/12/30 11:43:44;;;;;;;21.50;14.25;;;;;;;32.83;15.70;101651.41;5132229;28;20416;-89
2022/12/30 11:46:11;;;;;;;21.83;13.77;;;;;;;33.13;15.71;101654.06;5117301;27;20031;-90
2022/12/30 11:48:47;;;;;;;17.98;12.23;;;;;;;32.95;15.56;101641.59;5103114;28;20088;-90
2022/12/30 11:51:20;;;;;;;17.33;12.18;;;;;;;32.73;15.18;101627.25;5119778;27;20035;-89
2022/12/30 11:53:46;;;;;;;17.23;12.18;;;;;;;32.55;15.44;101626.81;5112817;28;20016;-89
2022/12/30 11:56:12;;;;;;;20.17;13.10;;;;;;;31.76;16.34;101604.19;5120655;28;20023;-89
2022/12/30 11:58:38;;;;;;;22.33;13.20;;;;;;;31.76;16.48;101625.59;5127720;27;20057;-89
2022/12/30 12:01:07;;;;;;;20.67;13.63;;;;;;;31.12;17.10;101605.59;5150090;27;20087;-86
2022/12/30 12:03:32;;;;;;;21.42;14.27;;;;;;;30.92;17.56;101636.94;5135975;28;20016;-84
2022/12/30 12:06:09;;;;;;;24.00;14.57;;;;;;;30.28;17.70;101640.00;5134466;27;20188;-90
2022/12/30 12:08:42;;;;;;;22.10;14.50;;;;;;;30.01;17.94;101604.06;5100491;27;20049;-88
2022/12/30 12:11:17;;;;;;;27.55;14.13;;;;;;;29.84;18.33;101632.78;5131417;27;20081;-89
2022/12/30 12:14:10;;;;;;;31.58;15.20;;;;;;;29.71;18.41;101624.09;5133927;27;20027;-88
2022/12/30 12:16:56;;;;;;;20.45;13.45;;;;;;;29.57;18.59;101632.84;5131249;27;20129;-89